createdAt,value
2022-08-25T00:01:11.401Z,-11484.50
2022-08-25T00:04:20.370Z,-11490.84
2022-08-25T00:07:27.165Z,-11471.53
2022-08-25T00:10:34.894Z,-11461.78
2022-08-25T00:13:43.931Z,-11476.47
2022-08-25T00:16:50.519Z,-11479.28
2022-08-25T00:19:58.099Z,-11481.97
2022-08-25T00:23:04.482Z,-11482.94
2022-08-25T00:26:14.446Z,-11488.03
2022-08-25T00:29:21.312Z,-11483.94
2022-08-25T00:32:28.142Z,-11491.41
2022-08-25T00:35:36.089Z,-11492.53
2022-08-25T00:38:44.180Z,-11489.72
2022-08-25T00:41:52.543Z,-11490.28
2022-08-25T00:45:00.595Z,-11493.25
2022-08-25T00:48:07.371Z,-11491.25
2022-08-25T00:51:22.126Z,-11483.22
2022-08-25T00:54:33.659Z,-11479.28
2022-08-25T00:57:44.523Z,-11464.31
2022-08-25T01:00:53.122Z,-11465.72
2022-08-25T01:03:59.486Z,-11458.69
2022-08-25T01:07:07.914Z,-11469.41
2022-08-25T01:10:24.294Z,-11472.09
2022-08-25T01:13:35.259Z,-11476.75
2022-08-25T01:16:43.672Z,-11485.75
2022-08-25T01:19:50.269Z,-11471.94
2022-08-25T01:22:59.595Z,-11480.81
2022-08-25T01:26:10.621Z,-11486.31
2022-08-25T01:29:25.537Z,-11474.75
2022-08-25T01:32:35.992Z,-11482.81
2022-08-25T01:35:42.448Z,-11490.00
2022-08-25T01:38:50.402Z,-11481.97
2022-08-25T01:42:11.568Z,-11482.09
2022-08-25T01:45:18.586Z,-11480.13
2022-08-25T01:48:24.747Z,-11478.84
2022-08-25T01:51:36.083Z,-11479.41
2022-08-25T01:54:44.055Z,-11469.41
2022-08-25T01:57:50.526Z,-11471.53
2022-08-25T02:00:58.783Z,-11475.91
2022-08-25T02:04:06.099Z,-11471.94
2022-08-25T02:07:14.773Z,-11470.25
2022-08-25T02:10:22.556Z,-11473.34
2022-08-25T02:13:31.553Z,-11483.38
2022-08-25T02:16:41.337Z,-11470.53
2022-08-25T02:19:47.743Z,-11460.94
2022-08-25T02:22:56.873Z,-11454.59
2022-08-25T02:26:06.290Z,-11449.09
2022-08-25T02:29:13.014Z,-11453.63
2022-08-25T02:32:18.998Z,-11452.91
2022-08-25T02:35:25.412Z,-11461.50
2022-08-25T02:38:31.930Z,-11464.59
2022-08-25T02:41:40.190Z,-11478.44
2022-08-25T02:44:46.790Z,-11479.28
2022-08-25T02:47:53.734Z,-11475.34
2022-08-25T02:51:02.744Z,-11472.09
2022-08-25T02:54:09.463Z,-11478.00
2022-08-25T02:57:18.308Z,-11485.34
2022-08-25T03:00:24.958Z,-11476.59
2022-08-25T03:03:31.395Z,-11474.91
2022-08-25T03:06:38.160Z,-11472.78
2022-08-25T03:09:45.148Z,-11476.75
2022-08-25T03:12:53.071Z,-11478.72
2022-08-25T03:16:00.557Z,-11471.66
2022-08-25T03:19:07.260Z,-11469.13
2022-08-25T03:22:14.639Z,-11470.53
2022-08-25T03:25:38.874Z,-11480.69
2022-08-25T03:28:46.668Z,-11474.75
2022-08-25T03:31:53.452Z,-11481.53
2022-08-25T03:35:01.675Z,-11476.19
2022-08-25T03:38:07.986Z,-11471.09
2022-08-25T03:41:17.250Z,-11469.41
2022-08-25T03:44:24.926Z,-11466.59
2022-08-25T03:47:31.635Z,-11467.16
2022-08-25T03:50:38.815Z,-11467.16
2022-08-25T03:53:45.340Z,-11467.72
2022-08-25T03:56:51.601Z,-11465.31
2022-08-25T03:59:59.410Z,-11466.44
2022-08-25T04:03:05.956Z,-11465.16
2022-08-25T04:06:12.416Z,-11462.63
2022-08-25T04:09:19.062Z,-11469.69
2022-08-25T04:12:25.717Z,-11467.44
2022-08-25T04:15:33.319Z,-11455.31
2022-08-25T04:18:39.942Z,-11473.22
2022-08-25T04:21:46.594Z,-11471.66
2022-08-25T04:24:52.978Z,-11472.78
2022-08-25T04:27:59.443Z,-11475.34
2022-08-25T04:31:09.717Z,-11474.34
2022-08-25T04:34:29.419Z,-11476.59
2022-08-25T04:37:37.658Z,-11486.59
2022-08-25T04:40:44.261Z,-11481.53
2022-08-25T04:43:50.648Z,-11480.13
2022-08-25T04:46:58.167Z,-11485.19
2022-08-25T04:50:04.990Z,-11486.31
2022-08-25T04:53:11.130Z,-11486.75
2022-08-25T04:56:19.600Z,-11493.94
2022-08-25T04:59:27.338Z,-11498.75
2022-08-25T05:02:37.238Z,-11498.44
2022-08-25T05:05:43.979Z,-11501.84
2022-08-25T05:08:50.022Z,-11505.38
2022-08-25T05:11:56.472Z,-11506.78
2022-08-25T05:15:22.998Z,-11503.69
2022-08-25T05:18:32.311Z,-11509.47
2022-08-25T05:21:38.616Z,-11512.28
2022-08-25T05:24:44.959Z,-11519.06
2022-08-25T05:27:51.426Z,-11508.47
2022-08-25T05:31:00.461Z,-11514.97
2022-08-25T05:34:09.320Z,-11526.66
2022-08-25T05:37:15.907Z,-11512.84
2022-08-25T05:40:22.615Z,-11525.53
2022-08-25T05:43:28.866Z,-11534.00
2022-08-25T05:46:35.350Z,-11522.72
2022-08-25T05:49:42.909Z,-11526.94
2022-08-25T05:52:49.192Z,-11519.19
2022-08-25T05:55:57.704Z,-11535.56
2022-08-25T05:59:08.651Z,-11537.97
2022-08-25T06:02:32.990Z,-11534.28
2022-08-25T06:05:41.224Z,-11523.84
2022-08-25T06:08:48.074Z,-11551.50
2022-08-25T06:11:55.520Z,-11565.63
2022-08-25T06:15:02.087Z,-11564.50
2022-08-25T06:18:08.200Z,-11563.06
2022-08-25T06:21:17.415Z,-11576.06
2022-08-25T06:24:24.219Z,-11575.22
2022-08-25T06:27:30.604Z,-11559.13
2022-08-25T06:30:36.556Z,-11557.44
2022-08-25T06:33:42.639Z,-11562.22
2022-08-25T06:36:50.672Z,-11571.41
2022-08-25T06:39:57.100Z,-11566.47
2022-08-25T06:43:06.870Z,-11565.75
2022-08-25T06:46:14.218Z,-11566.47
2022-08-25T06:49:20.594Z,-11571.84
2022-08-25T06:52:29.482Z,-11553.06
2022-08-25T06:55:36.335Z,-11564.06
2022-08-25T06:58:43.054Z,-11574.38
2022-08-25T07:01:49.788Z,-11574.38
2022-08-25T07:04:58.902Z,-11561.66
2022-08-25T07:08:06.777Z,-11548.97
2022-08-25T07:11:16.390Z,-11561.09
2022-08-25T07:14:23.883Z,-11580.72
2022-08-25T07:17:30.302Z,-11556.72
2022-08-25T07:20:36.928Z,-11584.25
2022-08-25T07:23:44.810Z,-11574.78
2022-08-25T07:26:51.738Z,-11565.63
2022-08-25T07:29:59.044Z,-11587.94
2022-08-25T07:33:06.966Z,-11558.00
2022-08-25T07:36:12.708Z,-11577.34
2022-08-25T07:39:22.105Z,-11576.34
2022-08-25T07:42:28.456Z,-11581.28
2022-08-25T07:45:36.507Z,-11599.78
2022-08-25T07:48:53.590Z,-11587.94
2022-08-25T07:52:05.472Z,-11589.63
2022-08-25T07:55:17.868Z,-11562.22
2022-08-25T07:58:24.372Z,-11572.53
2022-08-25T08:01:30.312Z,-11576.75
2022-08-25T08:04:38.222Z,-11576.19
2022-08-25T08:07:47.565Z,-11570.69
2022-08-25T08:11:10.687Z,-11586.09
2022-08-25T08:14:17.859Z,-11613.47
2022-08-25T08:17:24.279Z,-11617.44
2022-08-25T08:20:31.827Z,-11595.41
2022-08-25T08:23:49.437Z,-11615.31
2022-08-25T08:26:58.935Z,-11600.34
2022-08-25T08:30:06.486Z,-11585.38
2022-08-25T08:33:12.985Z,-11599.50
2022-08-25T08:36:20.364Z,-11625.31
2022-08-25T08:39:27.219Z,-11610.38
2022-08-25T08:42:53.067Z,-11603.44
2022-08-25T08:45:59.511Z,-11605.72
2022-08-25T08:49:14.201Z,-11605.72
2022-08-25T08:52:26.003Z,-11629.72
2022-08-25T08:55:40.476Z,-11623.34
2022-08-25T08:58:53.921Z,-11641.28
2022-08-25T09:02:02.140Z,-11634.50
2022-08-25T09:05:12.426Z,-11653.44
2022-08-25T09:08:20.253Z,-11652.88
2022-08-25T09:11:51.974Z,-11627.16
2022-08-25T09:15:12.593Z,-11657.81
2022-08-25T09:18:27.748Z,-11679.13
2022-08-25T09:21:42.675Z,-11663.03
2022-08-25T09:25:03.424Z,-11680.97
2022-08-25T09:28:21.895Z,-11660.63
2022-08-25T09:31:34.300Z,-11673.19
2022-08-25T09:34:40.567Z,-11669.38
2022-08-25T09:37:57.627Z,-11702.31
2022-08-25T09:41:05.291Z,-11692.53
2022-08-25T09:44:20.447Z,-11721.94
2022-08-25T09:47:29.183Z,-11709.63
2022-08-25T09:50:35.933Z,-11714.72
2022-08-25T09:53:47.366Z,-11734.22
2022-08-25T09:56:55.700Z,-11735.34
2022-08-25T10:00:16.435Z,-11747.34
2022-08-25T10:03:25.062Z,-11732.53
2022-08-25T10:06:37.971Z,-11746.38
2022-08-25T10:09:45.064Z,-11725.19
2022-08-25T10:12:52.521Z,-11740.16
2022-08-25T10:16:20.118Z,-11738.75
2022-08-25T10:19:30.426Z,-11743.69
2022-08-25T10:22:36.897Z,-11733.53
2022-08-25T10:25:59.477Z,-11760.22
2022-08-25T10:29:27.151Z,-11774.63
2022-08-25T10:32:50.563Z,-11732.25
2022-08-25T10:36:03.796Z,-11735.63
2022-08-25T10:39:34.307Z,-11748.91
2022-08-25T10:42:54.966Z,-11778.31
2022-08-25T10:46:08.547Z,-11777.44
2022-08-25T10:49:20.662Z,-11772.66
2022-08-25T10:52:39.588Z,-11748.34
2022-08-25T10:55:57.807Z,-11749.19
2022-08-25T10:59:24.302Z,-11718.25
2022-08-25T11:02:58.224Z,-11735.34
2022-08-25T11:06:09.029Z,-11727.88
2022-08-25T11:09:22.573Z,-11726.88
2022-08-25T11:12:35.040Z,-11745.53
2022-08-25T11:16:06.565Z,-11780.28
2022-08-25T11:19:20.355Z,-11762.75
2022-08-25T11:22:31.575Z,-11744.38
2022-08-25T11:25:45.171Z,-11755.84
2022-08-25T11:29:00.125Z,-11762.75
2022-08-25T11:32:07.146Z,-11773.06
2022-08-25T11:35:15.422Z,-11791.03
2022-08-25T11:38:35.712Z,-11795.53
2022-08-25T11:41:56.057Z,-11767.00
2022-08-25T11:45:14.121Z,-11792.56
2022-08-25T11:48:33.031Z,-11761.34
2022-08-25T11:51:45.189Z,-11801.91
2022-08-25T11:54:51.952Z,-11770.38
2022-08-25T11:58:30.669Z,-11763.31
2022-08-25T12:02:29.279Z,-11779.28
2022-08-25T12:06:13.714Z,-11793.28
2022-08-25T12:09:23.557Z,-11788.47
2022-08-25T12:12:32.390Z,-11768.84
2022-08-25T12:15:57.857Z,-11781.13
2022-08-25T12:19:26.408Z,-11746.66
2022-08-25T12:22:58.678Z,-11764.75
2022-08-25T12:26:15.288Z,-11746.38
2022-08-25T12:29:42.438Z,-11726.72
2022-08-25T12:33:03.277Z,-11736.75
2022-08-25T12:36:12.873Z,-11737.31
2022-08-25T12:39:24.334Z,-11735.63
2022-08-25T12:42:36.965Z,-11745.25
2022-08-25T12:45:46.482Z,-11750.34
2022-08-25T12:48:58.259Z,-11744.97
2022-08-25T12:52:09.311Z,-11759.09
2022-08-25T12:55:19.414Z,-11752.59
2022-08-25T12:58:58.742Z,-11758.66
2022-08-25T13:02:21.160Z,-11782.81
2022-08-25T13:05:54.488Z,-11752.44
2022-08-25T13:09:50.175Z,-11742.28
2022-08-25T13:13:01.903Z,-11719.94
2022-08-25T13:16:18.843Z,-11730.81
2022-08-25T13:19:26.519Z,-11739.59
2022-08-25T13:22:32.894Z,-11747.22
2022-08-25T13:25:50.727Z,-11756.25
2022-08-25T13:29:00.404Z,-11743.13
2022-08-25T13:32:26.143Z,-11737.47
2022-08-25T13:35:38.454Z,-11731.97
2022-08-25T13:38:46.907Z,-11750.47
2022-08-25T13:41:58.193Z,-11768.28
2022-08-25T13:45:16.775Z,-11788.19
2022-08-25T13:48:36.115Z,-11790.16
2022-08-25T13:51:53.631Z,-11773.22
2022-08-25T13:55:01.823Z,-11769.25
2022-08-25T13:58:16.259Z,-11770.09
2022-08-25T14:01:48.065Z,-11772.22
2022-08-25T14:04:57.675Z,-11791.88
2022-08-25T14:08:16.124Z,-11801.47
2022-08-25T14:11:31.831Z,-11797.94
2022-08-25T14:14:38.183Z,-11800.34
2022-08-25T14:21:00.172Z,-11795.41
2022-08-25T14:24:07.786Z,-11792.44
2022-08-25T14:27:18.863Z,-11786.50
2022-08-25T14:30:29.036Z,-11789.03
2022-08-25T14:33:39.890Z,-11785.09
2022-08-25T14:36:48.539Z,-11795.13
2022-08-25T14:39:55.028Z,-11800.91
2022-08-25T14:43:02.122Z,-11788.06
2022-08-25T14:46:19.525Z,-11796.66
2022-08-25T14:49:29.916Z,-11797.81
2022-08-25T14:52:37.403Z,-11783.94
2022-08-25T14:55:44.218Z,-11785.22
2022-08-25T14:58:54.209Z,-11770.25
2022-08-25T15:02:01.389Z,-11763.03
2022-08-25T15:05:11.886Z,-11762.06
2022-08-25T15:08:36.795Z,-11758.53
2022-08-25T15:11:46.946Z,-11748.06
2022-08-25T15:14:53.439Z,-11739.03
2022-08-25T15:18:01.249Z,-11745.38
2022-08-25T15:21:08.648Z,-11741.44
2022-08-25T15:24:18.489Z,-11736.06
2022-08-25T15:27:25.126Z,-11729.69
2022-08-25T15:30:37.195Z,-11727.28
2022-08-25T15:33:44.187Z,-11728.84
2022-08-25T15:36:50.846Z,-11734.22
2022-08-25T15:39:58.962Z,-11722.34
2022-08-25T15:43:05.801Z,-11724.91
2022-08-25T15:46:18.924Z,-11708.50
2022-08-25T15:49:25.695Z,-11713.31
2022-08-25T15:52:47.639Z,-11703.16
2022-08-25T15:55:57.577Z,-11695.66
2022-08-25T15:59:08.615Z,-11701.88
2022-08-25T16:02:15.513Z,-11696.06
2022-08-25T16:05:25.636Z,-11698.91
2022-08-25T16:08:33.671Z,-11688.03
2022-08-25T16:11:43.478Z,-11684.66
2022-08-25T16:14:49.994Z,-11676.59
2022-08-25T16:18:00.541Z,-11674.03
2022-08-25T16:21:12.337Z,-11664.44
2022-08-25T16:24:19.018Z,-11668.69
2022-08-25T16:27:26.895Z,-11670.09
2022-08-25T16:30:52.542Z,-11666.16
2022-08-25T16:33:59.273Z,-11665.56
2022-08-25T16:37:06.451Z,-11652.59
2022-08-25T16:40:15.104Z,-11645.38
2022-08-25T16:43:23.340Z,-11649.19
2022-08-25T16:46:31.279Z,-11649.91
2022-08-25T16:49:38.234Z,-11642.97
2022-08-25T16:53:01.943Z,-11640.44
2022-08-25T16:56:11.453Z,-11639.31
2022-08-25T16:59:19.807Z,-11639.31
2022-08-25T17:02:26.478Z,-11637.63
2022-08-25T17:05:34.613Z,-11631.97
2022-08-25T17:08:41.198Z,-11639.31
2022-08-25T17:11:49.164Z,-11637.63
2022-08-25T17:14:56.955Z,-11629.00
2022-08-25T17:18:03.614Z,-11622.66
2022-08-25T17:21:19.548Z,-11621.81
2022-08-25T17:24:31.859Z,-11624.06
2022-08-25T17:27:40.008Z,-11622.94
2022-08-25T17:30:48.178Z,-11620.53
2022-08-25T17:33:54.763Z,-11623.50
2022-08-25T17:37:01.487Z,-11630.84
2022-08-25T17:40:11.120Z,-11620.94
2022-08-25T17:43:17.787Z,-11609.09
2022-08-25T17:46:26.603Z,-11610.66
2022-08-25T17:49:33.631Z,-11615.44
2022-08-25T17:52:39.909Z,-11620.09
2022-08-25T17:55:47.278Z,-11624.06
2022-08-25T17:58:55.264Z,-11618.13
2022-08-25T18:02:03.164Z,-11613.75
2022-08-25T18:05:12.655Z,-11613.75
2022-08-25T18:08:19.442Z,-11607.81
2022-08-25T18:11:26.021Z,-11607.13
2022-08-25T18:14:32.312Z,-11604.56
2022-08-25T18:17:40.615Z,-11609.81
2022-08-25T18:20:47.430Z,-11607.97
2022-08-25T18:23:56.003Z,-11608.81
2022-08-25T18:27:02.995Z,-11611.22
2022-08-25T18:30:11.055Z,-11589.06
2022-08-25T18:33:19.147Z,-11577.63
2022-08-25T18:36:25.649Z,-11599.22
2022-08-25T18:39:54.834Z,-11591.31
2022-08-25T18:43:03.371Z,-11585.66
2022-08-25T18:46:10.377Z,-11589.34
2022-08-25T18:49:18.490Z,-11589.63
2022-08-25T18:52:26.554Z,-11573.81
2022-08-25T18:55:36.447Z,-11574.66
2022-08-25T18:58:42.695Z,-11574.09
2022-08-25T19:01:50.020Z,-11567.47
2022-08-25T19:05:00.689Z,-11570.56
2022-08-25T19:08:13.602Z,-11575.78
2022-08-25T19:11:23.806Z,-11567.03
2022-08-25T19:14:30.872Z,-11559.25
2022-08-25T19:17:37.768Z,-11573.81
2022-08-25T19:20:46.055Z,-11572.41
2022-08-25T19:23:53.653Z,-11565.91
2022-08-25T19:27:02.437Z,-11576.34
2022-08-25T19:30:11.411Z,-11577.06
2022-08-25T19:33:31.406Z,-11570.13
2022-08-25T19:36:47.521Z,-11569.84
2022-08-25T19:39:54.266Z,-11561.38
2022-08-25T19:43:00.863Z,-11557.28
2022-08-25T19:46:07.823Z,-11553.19
2022-08-25T19:49:16.638Z,-11556.03
2022-08-25T19:52:26.589Z,-11558.13
2022-08-25T19:55:33.599Z,-11556.31
2022-08-25T19:58:39.891Z,-11556.31
2022-08-25T20:01:49.395Z,-11555.19
2022-08-25T20:04:59.429Z,-11548.41
2022-08-25T20:08:08.052Z,-11552.06
2022-08-25T20:11:14.931Z,-11552.34
2022-08-25T20:14:22.000Z,-11546.84
2022-08-25T20:17:29.300Z,-11553.19
2022-08-25T20:20:35.632Z,-11558.56
2022-08-25T20:24:00.547Z,-11558.28
2022-08-25T20:27:07.413Z,-11558.84
2022-08-25T20:30:16.746Z,-11557.72
2022-08-25T20:33:23.489Z,-11554.91
2022-08-25T20:36:30.254Z,-11558.84
2022-08-25T20:39:40.018Z,-11558.13
2022-08-25T20:42:46.714Z,-11548.13
2022-08-25T20:46:01.420Z,-11554.34
2022-08-25T20:49:08.255Z,-11553.47
2022-08-25T20:52:15.468Z,-11558.69
2022-08-25T20:55:23.707Z,-11558.56
2022-08-25T20:58:30.308Z,-11557.16
2022-08-25T21:01:40.056Z,-11556.44
2022-08-25T21:04:49.081Z,-11548.81
2022-08-25T21:07:56.676Z,-11547.56
2022-08-25T21:11:04.238Z,-11544.72
2022-08-25T21:14:10.719Z,-11545.16
2022-08-25T21:17:19.170Z,-11549.38
2022-08-25T21:20:27.106Z,-11548.69
2022-08-25T21:23:33.414Z,-11536.69
2022-08-25T21:26:48.723Z,-11536.12
2022-08-25T21:29:55.678Z,-11537.69
2022-08-25T21:33:02.364Z,-11541.91
2022-08-25T21:36:10.602Z,-11540.94
2022-08-25T21:39:19.446Z,-11536.69
2022-08-25T21:42:27.697Z,-11539.66
2022-08-25T21:45:46.376Z,-11533.16
2022-08-25T21:48:54.038Z,-11527.09
2022-08-25T21:52:02.235Z,-11531.19
2022-08-25T21:55:15.690Z,-11530.34
2022-08-25T21:58:23.901Z,-11530.63
2022-08-25T22:01:30.467Z,-11521.03
2022-08-25T22:04:38.915Z,-11526.41
2022-08-25T22:07:45.215Z,-11527.66
2022-08-25T22:10:52.227Z,-11527.25
2022-08-25T22:14:00.744Z,-11527.94
2022-08-25T22:17:10.017Z,-11520.47
2022-08-25T22:20:20.542Z,-11525.25
2022-08-25T22:23:28.347Z,-11530.34
2022-08-25T22:26:35.186Z,-11524.28
2022-08-25T22:29:43.694Z,-11525.97
2022-08-25T22:32:50.390Z,-11520.19
2022-08-25T22:35:59.768Z,-11516.94
2022-08-25T22:39:09.107Z,-11518.63
2022-08-25T22:42:15.500Z,-11511.72
2022-08-25T22:45:23.494Z,-11516.50
2022-08-25T22:48:30.259Z,-11518.22
2022-08-25T22:51:37.428Z,-11515.09
2022-08-25T22:54:44.325Z,-11506.94
2022-08-25T22:57:50.568Z,-11500.72
2022-08-25T23:01:02.879Z,-11504.53
2022-08-25T23:04:10.886Z,-11490.00
2022-08-25T23:07:17.922Z,-11503.69
2022-08-25T23:10:25.654Z,-11496.47
2022-08-25T23:13:34.304Z,-11505.50
2022-08-25T23:16:44.588Z,-11482.66
2022-08-25T23:19:51.110Z,-11490.13
2022-08-25T23:22:56.587Z,-11497.88
2022-08-25T23:26:03.290Z,-11501.84
2022-08-25T23:29:18.329Z,-11495.50
2022-08-25T23:32:28.054Z,-11498.44
2022-08-25T23:35:34.604Z,-11500.16
2022-08-25T23:38:43.978Z,-11490.00
2022-08-25T23:41:51.314Z,-11498.44
2022-08-25T23:44:57.412Z,-11491.81
2022-08-25T23:48:06.532Z,-11488.88
2022-08-25T23:51:12.967Z,-11471.09
2022-08-25T23:54:21.485Z,-11482.25
2022-08-25T23:57:27.805Z,-11487.75
